Academy, New Jersey
Current Conditions -  °F | °C
As of 5:20 PM on Wednesday 22 Oct 2014 (Local Time) from KEWR Reporting Station
Moderate Rain Moderate Rain  
Wind Chill: 54°   Ceiling: 2000
Heat Index: 54°   Visibility: 2.5mi
Dew Point: 48°   Wind: 20mph
Humidity: 82%   Direction: 10°N
Pressure: 29.84"   Gusts: 30mph
Location:  40.7334°N, 74.1735°W
Report Text: KEWR 222120Z 01017G26KT 2 1/2SM RA BKN020 OVC029 12/09 A2984 RMK AO2 PK WND 36028/2053 SFC VIS 3 RAB2055 P0001
Loading
Personal Weather Stations






























Interactive Weather Map
Tropical Storm Tracking
New forecast layout! Learn more

10-Day Weather Forecast

Advertisements
Track Severe Weather on mobile